Flight Track Log - Related Links

Times and Time Zones

All times are in EDT time to prevent confusion due to time zone crossing. See the N987TS flight status page for this flight to view local times or setup timezone preferences in your user account.

Time Position Orientation Groundspeed Altitude Reporting Facility
EDT Latitude Longitude Course Direction KTS MPH feet Rate Location/Type
Fri 05:03:54 PM 33.6333 -117.7667 133° Southeast 146 168 5,000  Level Southern California TRACON
Fri 05:04:54 PM 33.6000 -117.7500 157° South 147 169 5,000  Level Southern California TRACON
Fri 05:05:54 PM 33.5500 -117.7500 180° South 144 166 5,000  Level Southern California TRACON
Fri 05:06:55 PM 33.5167 -117.7167 140° Southeast 142 163 5,000  Level Southern California TRACON
Fri 05:07:55 PM 33.4833 -117.7000 157° South 143 165 5,000  Level Southern California TRACON
Fri 05:08:56 PM 33.4500 -117.6667 140° Southeast 142 163 5,000  Level Southern California TRACON
Fri 05:09:00 PM 33.4693 -117.7086 133° Southeast  Level Estimated
Fri 05:09:56 PM 33.4333 -117.6333 121° Southeast 144 166 5,000  Level Southern California TRACON
Fri 05:10:56 PM 33.4000 -117.6000 140° Southeast 141 162 5,000  Level Southern California TRACON
Fri 05:11:56 PM 33.3667 -117.5667 140° Southeast 144 166 5,000  Level Southern California TRACON
Fri 05:12:57 PM 33.3500 -117.5333 121° Southeast 143 165 5,000  Level Southern California TRACON
Fri 05:14:02 PM 33.3167 -117.5000 140° Southeast 145 167 5,000  Level Southern California TRACON
Fri 05:15:03 PM 33.2833 -117.4667 140° Southeast 146 168 5,000  Level Southern California TRACON
Fri 05:16:03 PM 33.2500 -117.4333 140° Southeast 145 167 5,000  Level Southern California TRACON
Fri 05:17:03 PM 33.2333 -117.3833 112° Southeast 147 169 5,000  Level Southern California TRACON
Fri 05:18:03 PM 33.2000 -117.3667 157° South 127 146 5,000  Level Southern California TRACON
Fri 05:18:58 PM 33.1667 -117.3500 157° South 122 140 5,000  Level Southern California TRACON
Fri 05:19:58 PM 33.1667 -117.3333 90° East 127 146 5,000  Level Southern California TRACON
Fri 05:20:58 PM 33.1833 -117.3000 59° Northeast 129 148 5,000  Level Southern California TRACON
Fri 05:21:58 PM 33.2000 -117.2500 68° East 135 155 5,000  Level Southern California TRACON
Fri 05:22:58 PM 33.2167 -117.2167 59° Northeast 133 153 5,000 -150 Level Southern California TRACON
Fri 05:23:58 PM 33.2333 -117.1833 59° Northeast 146 168 4,700 -496 Descending Southern California TRACON
Fri 05:24:59 PM 33.2500 -117.1167 73° East 163 188 4,000 -347 Descending Southern California TRACON
Fri 05:25:59 PM 33.2333 -117.0833 121° Southeast 142 163 4,000 -100 Level Southern California TRACON
Fri 05:26:59 PM 33.2167 -117.0500 121° Southeast 145 167 3,800 -200 Descending Southern California TRACON
Fri 05:27:59 PM 33.1667 -117.0500 180° South 128 147 3,600 -99 Descending Southern California TRACON
Fri 05:29:00 PM 33.1500 -117.0667 220° Southwest 102 117 3,600 -50 Level Southern California TRACON
Fri 05:30:00 PM 33.1500 -117.0833 270° West 90 104 3,500 -300 Descending Southern California TRACON
Fri 05:31:00 PM 33.1500 -117.1167 270° West 103 119 3,000 -545 Descending Southern California TRACON
Fri 05:32:01 PM 33.1500 -117.1500 270° West 109 125 2,400 -595 Descending Southern California TRACON
Fri 05:33:01 PM 33.1500 -117.2000 270° West 108 124 1,800 -650 Descending Southern California TRACON
Fri 05:34:01 PM 33.1333 -117.2333 239° Southwest 100 115 1,100 -600 Descending Southern California TRACON
Fri 05:35:01 PM 33.1333 -117.2500 270° West 76 87 600 -298 Descending Southern California TRACON
Fri 05:36:02 PM 33.1167 -117.2667 220° Southwest 65 75 500 -98 Descending Southern California TRACON
Fri 05:38:00 PM 33.1283 -117.2801 316° Northwest  Level Estimated
Fri 05:45:00 PM 33.1283 -117.2801 270° West  Level Estimated
Fri 05:46:00 PM 33.1283 -117.2801 270° West  Level Estimated
Fri 05:47:00 PM 33.1283 -117.2801 270° West  Level Estimated
Fri 05:48:00 PM 33.1283 -117.2801 270° West  Level Estimated

Login

Don't have an account? Register now (free) for customized features, flight alerts, and more!